Time;durP1;ratioP1;P1;durP2;ratioP2;P2;SDS_P1;SDS_P2;PMS_P1;PMS_P2;Temp;Humidity;BMP_temperature;BMP_pressure;BME280_temperature;BME280_humidity;BME280_pressure;Samples;Min_cycle;Max_cycle;Signal;HPM_P1;HPM_P2
2022/03/25 00:02:05;;;;;;;8.45;7.18;;;;;;;5.20;67.07;96584.28;6367127;22;20029;-61
2022/03/25 00:04:31;;;;;;;8.18;7.10;;;;;;;5.15;67.26;96587.97;6367993;22;20018;-61
2022/03/25 00:06:56;;;;;;;8.13;7.25;;;;;;;5.10;67.49;96589.19;6367649;22;20221;-61
2022/03/25 00:09:21;;;;;;;8.20;7.07;;;;;;;5.06;67.84;96585.03;6367772;22;20037;-61
2022/03/25 00:11:47;;;;;;;9.13;7.22;;;;;;;5.07;67.44;96584.97;6367778;22;19994;-62
2022/03/25 00:14:14;;;;;;;7.32;6.50;;;;;;;5.02;68.10;96582.59;6367854;22;20356;-61
2022/03/25 00:16:40;;;;;;;8.05;7.25;;;;;;;5.03;67.14;96588.69;6340296;22;20081;-61
2022/03/25 00:19:06;;;;;;;11.18;7.43;;;;;;;5.01;67.83;96590.53;6368332;22;20456;-61
2022/03/25 00:21:31;;;;;;;8.43;7.10;;;;;;;5.04;67.61;96584.28;6367983;22;20012;-61
2022/03/25 00:23:56;;;;;;;9.70;6.38;;;;;;;4.96;67.98;96587.31;6367878;22;19998;-61
2022/03/25 00:26:22;;;;;;;7.68;6.72;;;;;;;4.95;68.11;96586.50;6367640;22;20013;-61
2022/03/25 00:28:48;;;;;;;7.30;6.60;;;;;;;4.93;68.38;96580.53;6367684;22;19998;-61
2022/03/25 00:31:13;;;;;;;8.68;7.28;;;;;;;4.85;68.76;96580.94;6367854;22;20337;-61
2022/03/25 00:33:42;;;;;;;16.75;8.75;;;;;;;4.77;68.77;96583.16;6367839;22;20461;-61
2022/03/25 00:36:09;;;;;;;11.05;7.68;;;;;;;4.78;69.68;96583.97;6339722;22;20457;-61
2022/03/25 00:38:35;;;;;;;10.65;6.97;;;;;;;4.76;68.87;96578.00;6367293;22;20002;-61
2022/03/25 00:41:00;;;;;;;13.73;8.10;;;;;;;4.75;68.74;96569.31;6368021;22;20499;-61
2022/03/25 00:43:27;;;;;;;12.85;7.78;;;;;;;4.72;68.77;96585.13;6367059;22;20017;-62
2022/03/25 00:45:53;;;;;;;12.27;7.82;;;;;;;4.68;69.27;96578.41;6367452;22;20037;-61
2022/03/25 00:48:18;;;;;;;14.20;8.57;;;;;;;4.65;70.00;96579.44;6367467;22;20438;-62
2022/03/25 00:50:43;;;;;;;13.20;7.40;;;;;;;4.62;69.30;96576.16;6367330;22;20026;-61
2022/03/25 00:53:09;;;;;;;10.85;8.73;;;;;;;4.61;68.80;96577.06;6367569;22;20052;-62
2022/03/25 00:55:34;;;;;;;15.00;7.53;;;;;;;4.64;69.11;96572.53;6339748;22;20014;-62
2022/03/25 00:58:01;;;;;;;9.13;7.30;;;;;;;4.64;69.92;96579.50;6367983;22;20002;-62
2022/03/25 01:00:26;;;;;;;13.77;8.15;;;;;;;4.58;69.90;96568.50;6367638;22;20037;-61
2022/03/25 01:02:53;;;;;;;8.70;7.50;;;;;;;4.52;70.45;96571.41;6367310;22;20034;-61
2022/03/25 01:05:19;;;;;;;10.70;7.43;;;;;;;4.48;70.89;96562.06;6366693;22;20010;-61
2022/03/25 01:07:44;;;;;;;9.25;7.65;;;;;;;4.47;71.05;96567.38;6367274;22;20495;-61
2022/03/25 01:10:11;;;;;;;10.20;7.65;;;;;;;4.43;71.05;96559.72;6367308;22;19999;-61
2022/03/25 01:12:37;;;;;;;9.20;7.43;;;;;;;4.46;69.49;96557.88;6367491;22;20049;-61
2022/03/25 01:15:03;;;;;;;8.60;6.90;;;;;;;4.42;69.81;96559.81;6367376;22;20002;-62
2022/03/25 01:17:28;;;;;;;9.18;6.72;;;;;;;4.39;70.46;96552.97;6367139;22;20002;-61
2022/03/25 01:19:55;;;;;;;10.50;7.47;;;;;;;4.33;70.75;96550.72;6339208;22;20343;-61
2022/03/25 01:22:20;;;;;;;10.85;6.85;;;;;;;4.29;70.82;96552.63;6367364;22;20430;-61
2022/03/25 01:24:46;;;;;;;10.05;7.47;;;;;;;4.25;71.20;96558.94;6366885;22;20012;-62
2022/03/25 01:27:11;;;;;;;9.38;7.47;;;;;;;4.26;70.48;96554.56;6367280;22;20003;-62
2022/03/25 01:29:37;;;;;;;11.40;7.85;;;;;;;4.27;70.39;96549.25;6366744;22;20392;-61
2022/03/25 01:32:04;;;;;;;9.73;7.05;;;;;;;4.29;70.18;96549.19;6367873;22;20010;-61
2022/03/25 01:34:30;;;;;;;8.45;6.88;;;;;;;4.26;70.75;96551.97;6367476;22;20335;-62
2022/03/25 01:36:55;;;;;;;10.15;7.78;;;;;;;4.22;70.56;96553.88;6366916;22;20006;-61
2022/03/25 01:39:20;;;;;;;9.75;7.82;;;;;;;4.16;71.15;96547.22;6366967;22;20002;-61
2022/03/25 01:41:47;;;;;;;9.35;7.15;;;;;;;4.09;71.08;96551.09;6366951;22;20483;-61
2022/03/25 01:44:13;;;;;;;12.57;7.80;;;;;;;4.09;70.51;96556.31;6367278;22;20018;-61
2022/03/25 01:46:39;;;;;;;8.52;7.22;;;;;;;4.07;71.48;96562.50;6367098;22;20077;-61
2022/03/25 01:49:05;;;;;;;17.00;9.82;;;;;;;4.01;71.75;96554.09;6366936;22;20391;-62
2022/03/25 01:51:36;;;;;;;13.68;8.85;;;;;;;3.94;72.07;96549.28;6367240;22;20333;-61
2022/03/25 01:54:17;;;;;;;15.95;9.43;;;;;;;3.95;71.61;96549.22;6367062;22;20082;-61
2022/03/25 01:56:42;;;;;;;14.35;9.57;;;;;;;3.99;71.74;96557.72;6366797;22;20038;-61
2022/03/25 01:59:08;;;;;;;16.83;9.95;;;;;;;3.98;72.03;96543.84;6367289;22;19999;-61
2022/03/25 02:01:33;;;;;;;15.10;9.23;;;;;;;3.97;72.38;96546.50;6366690;22;19998;-61
2022/03/25 02:03:58;;;;;;;15.98;11.98;;;;;;;3.94;72.32;96550.13;6366669;22;20010;-61
2022/03/25 02:06:24;;;;;;;15.50;11.32;;;;;;;3.90;72.48;96545.16;6366518;22;20140;-61
2022/03/25 02:08:49;;;;;;;14.77;10.98;;;;;;;3.87;72.06;96552.22;6366455;22;20342;-61
2022/03/25 02:11:17;;;;;;;78.90;43.58;;;;;;;3.85;72.62;96547.97;6366862;22;20029;-61
2022/03/25 02:13:43;;;;;;;80.60;43.53;;;;;;;3.82;72.60;96543.78;6367144;22;20002;-61
2022/03/25 02:16:08;;;;;;;39.22;25.08;;;;;;;3.76;72.73;96540.66;6367004;22;20331;-61
2022/03/25 02:18:34;;;;;;;37.50;22.88;;;;;;;3.72;72.99;96538.22;6367350;22;20077;-61
2022/03/25 02:20:59;;;;;;;41.63;22.27;;;;;;;3.69;72.70;96538.38;6366737;22;20034;-61
2022/03/25 02:23:24;;;;;;;31.27;19.52;;;;;;;3.67;73.36;96531.56;6366615;22;20073;-61
2022/03/25 02:25:52;;;;;;;29.73;19.38;;;;;;;3.64;73.21;96529.94;6366442;22;20442;-61
2022/03/25 02:28:18;;;;;;;25.75;16.08;;;;;;;3.69;73.69;96535.78;6366687;22;20010;-61
2022/03/25 02:30:44;;;;;;;24.30;14.38;;;;;;;3.60;73.83;96532.78;6367209;22;20464;-61
2022/03/25 02:33:10;;;;;;;23.45;15.55;;;;;;;3.64;73.30;96529.94;6366577;22;20085;-61
2022/03/25 02:35:39;;;;;;;24.25;13.77;;;;;;;3.64;73.37;96529.94;6366533;22;20006;-61
2022/03/25 02:38:06;;;;;;;20.58;12.80;;;;;;;3.63;73.75;96523.03;6367393;22;20010;-61
2022/03/25 02:40:31;;;;;;;22.75;12.98;;;;;;;3.60;73.84;96520.59;6366710;22;20006;-61
2022/03/25 02:42:57;;;;;;;18.17;11.90;;;;;;;3.62;73.38;96525.75;6366448;22;20476;-61
2022/03/25 02:45:22;;;;;;;20.45;12.93;;;;;;;3.62;73.36;96526.56;6339017;22;20349;-61
2022/03/25 02:47:48;;;;;;;17.98;12.00;;;;;;;3.59;73.74;96531.94;6366432;22;20038;-61
2022/03/25 02:50:14;;;;;;;19.17;12.48;;;;;;;3.58;73.89;96525.03;6366978;22;20092;-61
2022/03/25 02:52:39;;;;;;;20.73;11.52;;;;;;;3.56;73.97;96526.88;6366288;22;19998;-61
2022/03/25 02:55:05;;;;;;;18.92;10.85;;;;;;;3.55;73.44;96525.22;6338656;22;20399;-61
2022/03/25 02:57:31;;;;;;;16.00;10.10;;;;;;;3.54;74.38;96529.59;6366639;22;20001;-61
2022/03/25 02:59:56;;;;;;;18.20;10.75;;;;;;;3.54;73.74;96520.91;6366660;22;20014;-61
2022/03/25 03:02:21;;;;;;;15.48;10.50;;;;;;;3.52;73.93;96530.56;6366410;22;19998;-61
2022/03/25 03:04:47;;;;;;;14.25;9.88;;;;;;;3.45;74.32;96530.03;6366067;22;20002;-61
2022/03/25 03:07:13;;;;;;;20.63;11.10;;;;;;;3.39;74.56;96531.19;6367203;22;20397;-61
2022/03/25 03:09:38;;;;;;;20.55;11.77;;;;;;;3.36;74.19;96527.91;6368839;22;20018;-61
2022/03/25 03:12:04;;;;;;;18.00;11.38;;;;;;;3.35;74.35;96523.63;6368704;22;20006;-61
2022/03/25 03:14:29;;;;;;;23.75;13.85;;;;;;;3.32;74.06;96529.81;6368844;22;20002;-61
2022/03/25 03:16:55;;;;;;;21.85;13.32;;;;;;;3.30;74.24;96532.47;6368451;22;20009;-61
2022/03/25 03:19:20;;;;;;;17.10;11.55;;;;;;;3.28;75.12;96525.69;6368483;22;20002;-61
2022/03/25 03:21:46;;;;;;;20.63;11.75;;;;;;;3.26;75.30;96525.75;6368933;22;19998;-62
2022/03/25 03:24:11;;;;;;;17.20;12.13;;;;;;;3.22;75.38;96523.41;6368659;22;20089;-62
2022/03/25 03:26:37;;;;;;;14.00;11.05;;;;;;;3.19;75.01;96523.53;6368253;22;20034;-61
2022/03/25 03:29:02;;;;;;;13.10;9.90;;;;;;;3.20;75.07;96520.00;6368618;22;20006;-61
2022/03/25 03:31:28;;;;;;;16.75;10.32;;;;;;;3.21;75.34;96521.72;6368707;22;20007;-61
2022/03/25 03:33:53;;;;;;;14.82;10.65;;;;;;;3.23;75.70;96514.66;6368105;22;20010;-61
2022/03/25 03:36:19;;;;;;;24.52;15.95;;;;;;;3.20;75.03;96520.84;6368420;22;20010;-62
2022/03/25 03:38:44;;;;;;;22.52;14.15;;;;;;;3.21;75.39;96524.31;6367985;22;20087;-61
2022/03/25 03:41:10;;;;;;;17.02;13.15;;;;;;;3.19;75.25;96518.31;6369215;22;19998;-62
2022/03/25 03:43:35;;;;;;;19.00;11.82;;;;;;;3.20;75.61;96517.41;6368404;22;20051;-62
2022/03/25 03:46:01;;;;;;;16.60;11.50;;;;;;;3.18;76.48;96512.28;6367926;22;20434;-61
2022/03/25 03:48:26;;;;;;;17.13;11.70;;;;;;;3.18;75.72;96514.88;6368424;22;20167;-61
2022/03/25 03:50:51;;;;;;;15.35;11.55;;;;;;;3.21;74.83;96506.09;6368568;22;20030;-61
2022/03/25 03:53:17;;;;;;;14.93;11.48;;;;;;;3.16;75.45;96503.72;6368134;22;20003;-61
2022/03/25 03:55:42;;;;;;;16.17;10.35;;;;;;;3.09;76.63;96505.78;6368278;22;20355;-61
2022/03/25 03:58:08;;;;;;;13.25;11.00;;;;;;;3.13;75.77;96511.69;6368151;22;20020;-62
2022/03/25 04:00:34;;;;;;;12.88;9.73;;;;;;;3.13;76.55;96512.50;6368178;22;19999;-61
2022/03/25 04:03:00;;;;;;;12.80;9.63;;;;;;;3.08;76.17;96511.03;6368166;22;20002;-61
2022/03/25 04:05:25;;;;;;;11.05;9.82;;;;;;;3.02;76.56;96517.41;6367717;22;20012;-61
2022/03/25 04:07:50;;;;;;;12.80;9.52;;;;;;;3.00;76.17;96514.03;6368125;22;20007;-61
2022/03/25 04:10:18;;;;;;;12.40;9.95;;;;;;;3.00;75.41;96517.47;6368140;22;20072;-62
2022/03/25 04:12:43;;;;;;;18.77;9.25;;;;;;;3.00;75.63;96524.44;6367692;22;20067;-62
2022/03/25 04:15:11;;;;;;;11.77;9.10;;;;;;;2.95;76.14;96523.81;6368058;22;20437;-61
2022/03/25 04:17:41;;;;;;;13.15;8.88;;;;;;;2.89;76.11;96517.16;6368097;22;20010;-62
2022/03/25 04:20:09;;;;;;;10.15;8.93;;;;;;;2.84;76.68;96514.78;6367801;22;20014;-61
2022/03/25 04:22:34;;;;;;;10.07;8.75;;;;;;;2.82;76.34;96523.56;6367542;22;20009;-61
2022/03/25 04:25:00;;;;;;;8.93;8.02;;;;;;;2.84;76.50;96519.13;6367420;22;20342;-61
2022/03/25 04:27:26;;;;;;;10.65;7.55;;;;;;;2.83;75.97;96518.28;6367584;22;20424;-61
2022/03/25 04:29:51;;;;;;;8.70;7.07;;;;;;;2.83;76.01;96520.03;6367469;22;20440;-61
2022/03/25 04:32:16;;;;;;;11.50;7.78;;;;;;;2.78;76.37;96525.47;6368386;22;20521;-61
2022/03/25 04:34:42;;;;;;;8.75;6.65;;;;;;;2.76;76.85;96519.47;6367563;22;20010;-61
2022/03/25 04:37:09;;;;;;;8.68;6.97;;;;;;;2.75;77.23;96525.59;6368006;22;20312;-61
2022/03/25 04:39:35;;;;;;;7.60;6.63;;;;;;;2.74;77.19;96521.31;6367657;22;20034;-61
2022/03/25 04:42:00;;;;;;;7.55;6.80;;;;;;;2.72;76.66;96530.94;6367607;22;20063;-62
2022/03/25 04:44:26;;;;;;;12.63;6.80;;;;;;;2.77;76.06;96518.59;6367523;22;20502;-61
2022/03/25 04:46:53;;;;;;;7.07;6.35;;;;;;;2.77;76.40;96521.19;6367125;22;20007;-62
2022/03/25 04:49:18;;;;;;;7.10;6.40;;;;;;;2.78;76.36;96525.47;6366361;22;20081;-61
2022/03/25 04:51:43;;;;;;;7.70;6.65;;;;;;;2.74;76.82;96523.91;6367507;22;20086;-62
2022/03/25 04:54:09;;;;;;;9.88;7.03;;;;;;;2.72;76.80;96521.41;6367542;22;20002;-61
2022/03/25 04:56:36;;;;;;;8.27;7.35;;;;;;;2.69;77.26;96524.16;6367587;22;20002;-61
2022/03/25 04:59:02;;;;;;;14.15;9.95;;;;;;;2.65;76.95;96532.16;6367779;22;20009;-62
2022/03/25 05:01:27;;;;;;;10.13;8.82;;;;;;;2.62;77.32;96525.34;6367321;22;20423;-61
2022/03/25 05:03:53;;;;;;;9.63;8.63;;;;;;;2.61;76.93;96528.84;6367389;22;20002;-61
2022/03/25 05:06:18;;;;;;;12.02;8.70;;;;;;;2.60;77.05;96526.34;6367347;22;20350;-61
2022/03/25 05:08:43;;;;;;;11.27;10.05;;;;;;;2.53;77.33;96521.41;6367406;22;20003;-61
2022/03/25 05:11:09;;;;;;;9.95;8.63;;;;;;;2.52;76.87;96529.31;6366273;22;20005;-61
2022/03/25 05:13:35;;;;;;;9.55;8.52;;;;;;;2.51;77.19;96527.63;6366458;22;20017;-61
2022/03/25 05:16:00;;;;;;;13.98;9.38;;;;;;;2.48;77.41;96527.78;6366729;22;20014;-61
2022/03/25 05:18:26;;;;;;;11.13;9.43;;;;;;;2.42;77.95;96529.72;6367043;22;20002;-61
2022/03/25 05:20:51;;;;;;;10.93;8.35;;;;;;;2.38;78.14;96541.16;6366496;22;20025;-61
2022/03/25 05:23:17;;;;;;;11.95;9.55;;;;;;;2.35;77.24;96536.13;6366963;22;20055;-61
2022/03/25 05:25:42;;;;;;;9.90;8.68;;;;;;;2.32;78.10;96543.19;6338383;22;20473;-60
2022/03/25 05:28:08;;;;;;;10.23;9.18;;;;;;;2.26;78.76;96539.97;6366526;22;20006;-60
2022/03/25 05:30:34;;;;;;;12.18;9.15;;;;;;;2.26;78.32;96539.97;6366827;22;20006;-61
2022/03/25 05:32:59;;;;;;;13.00;10.82;;;;;;;2.23;79.27;96534.09;6367262;22;20009;-61
2022/03/25 05:35:28;;;;;;;14.93;9.23;;;;;;;2.26;78.50;96534.78;6367200;22;20026;-60
2022/03/25 05:37:54;;;;;;;12.90;9.38;;;;;;;2.29;78.57;96539.00;6366819;22;20420;-60
2022/03/25 05:40:21;;;;;;;9.68;8.20;;;;;;;2.31;78.91;96542.38;6367126;22;20131;-60
2022/03/25 05:42:47;;;;;;;9.82;8.70;;;;;;;2.32;77.84;96548.41;6366629;22;20006;-60
2022/03/25 05:45:13;;;;;;;8.45;7.53;;;;;;;2.32;78.42;96541.47;6366570;22;20458;-61
2022/03/25 05:47:40;;;;;;;8.13;7.32;;;;;;;2.33;78.55;96543.16;6366938;22;20037;-60
2022/03/25 05:50:08;;;;;;;9.68;7.80;;;;;;;2.34;79.04;96544.84;6366795;22;20003;-60
2022/03/25 05:52:34;;;;;;;13.32;8.38;;;;;;;2.35;78.43;96548.28;6366998;22;20007;-60
2022/03/25 05:55:00;;;;;;;12.88;7.88;;;;;;;2.33;77.99;96545.75;6366937;22;19998;-60
2022/03/25 05:57:26;;;;;;;7.90;7.15;;;;;;;2.35;78.00;96540.50;6366917;22;20006;-60
2022/03/25 05:59:51;;;;;;;10.00;8.18;;;;;;;2.38;78.74;96550.75;6366600;22;20074;-61
2022/03/25 06:02:16;;;;;;;11.32;8.88;;;;;;;2.40;78.62;96549.75;6366815;22;20005;-60
2022/03/25 06:04:42;;;;;;;10.55;8.18;;;;;;;2.46;77.89;96548.63;6366559;22;20504;-60
2022/03/25 06:07:07;;;;;;;11.63;7.78;;;;;;;2.44;77.49;96550.44;6366978;22;20010;-60
2022/03/25 06:09:33;;;;;;;8.85;7.70;;;;;;;2.44;78.50;96542.66;6366747;22;20010;-61
2022/03/25 06:11:58;;;;;;;9.27;7.10;;;;;;;2.51;77.15;96538.84;6366974;22;20345;-60
2022/03/25 06:14:25;;;;;;;10.43;7.72;;;;;;;2.53;78.01;96546.59;6367148;22;20059;-60
2022/03/25 06:16:51;;;;;;;18.08;8.05;;;;;;;2.52;78.18;96556.13;6366739;22;20450;-60
2022/03/25 06:19:17;;;;;;;9.07;7.78;;;;;;;2.54;77.62;96553.47;6366757;22;20005;-61
2022/03/25 06:21:43;;;;;;;10.23;7.45;;;;;;;2.61;78.98;96548.84;6365533;22;20083;-60
2022/03/25 06:24:08;;;;;;;10.98;8.50;;;;;;;2.60;77.90;96552.34;6366767;22;20168;-60
2022/03/25 06:26:34;;;;;;;12.82;8.77;;;;;;;2.60;77.86;96547.97;6366509;22;20131;-61
2022/03/25 06:28:59;;;;;;;16.25;8.07;;;;;;;2.64;78.17;96554.72;6366673;22;19999;-61
2022/03/25 06:31:25;;;;;;;11.93;7.90;;;;;;;2.67;77.58;96553.75;6365941;22;20008;-60
2022/03/25 06:33:50;;;;;;;10.77;8.52;;;;;;;2.71;77.34;96553.53;6366451;22;20010;-61
2022/03/25 06:36:15;;;;;;;19.95;8.30;;;;;;;2.75;77.28;96556.81;6366927;22;20013;-61
2022/03/25 06:38:41;;;;;;;14.60;9.45;;;;;;;2.78;78.16;96548.88;6366705;22;20426;-60
2022/03/25 06:41:07;;;;;;;12.20;9.40;;;;;;;2.84;77.41;96556.41;6366245;22;20010;-61
2022/03/25 06:43:34;;;;;;;11.75;8.52;;;;;;;2.89;78.32;96557.94;6366941;22;20089;-61
2022/03/25 06:45:59;;;;;;;17.30;9.15;;;;;;;2.93;77.38;96556.84;6367693;22;20441;-60
2022/03/25 06:48:25;;;;;;;9.50;8.57;;;;;;;2.96;77.33;96554.97;6368002;22;20097;-60
2022/03/25 06:50:51;;;;;;;12.52;8.55;;;;;;;3.00;77.72;96553.06;6368455;22;20530;-60
2022/03/25 06:53:16;;;;;;;8.60;7.65;;;;;;;2.98;78.16;96557.47;6369243;22;20441;-59
2022/03/25 06:55:43;;;;;;;11.98;7.95;;;;;;;3.04;77.76;96548.53;6368953;22;19999;-60
2022/03/25 06:58:10;;;;;;;11.68;8.10;;;;;;;3.14;76.39;96555.81;6368671;22;20002;-60
2022/03/25 07:00:36;;;;;;;11.40;8.02;;;;;;;3.22;76.41;96550.25;6368099;22;20029;-60
2022/03/25 07:03:02;;;;;;;14.07;8.55;;;;;;;3.28;76.87;96556.91;6368330;22;20051;-60
2022/03/25 07:05:30;;;;;;;11.48;7.78;;;;;;;3.34;77.24;96547.97;6368070;22;20006;-60
2022/03/25 07:07:56;;;;;;;12.05;8.52;;;;;;;3.38;77.76;96544.28;6367572;22;20025;-59
2022/03/25 07:10:23;;;;;;;10.15;8.50;;;;;;;3.46;77.54;96549.13;6367824;22;20073;-60
2022/03/25 07:12:53;;;;;;;16.83;8.68;;;;;;;3.50;76.69;96550.66;6368041;22;20002;-60
2022/03/25 07:15:20;;;;;;;14.18;8.70;;;;;;;3.54;77.76;96549.56;6368726;22;20002;-60
2022/03/25 07:17:46;;;;;;;11.27;7.55;;;;;;;4.10;75.41;96544.13;6368518;22;20002;-60
2022/03/25 07:20:14;;;;;;;12.52;8.45;;;;;;;5.32;78.34;96547.03;6368753;22;20002;-59
2022/03/25 07:22:44;;;;;;;13.43;9.35;;;;;;;6.41;73.10;96548.47;6368698;22;20339;-61
2022/03/25 07:25:11;;;;;;;11.63;8.85;;;;;;;7.38;69.04;96546.69;6368932;22;20013;-59
2022/03/25 07:27:37;;;;;;;16.42;10.10;;;;;;;8.18;65.28;96537.03;6368714;22;20009;-59
2022/03/25 07:30:04;;;;;;;11.50;9.80;;;;;;;8.73;63.24;96534.94;6368820;22;20010;-60
2022/03/25 07:32:30;;;;;;;18.55;12.93;;;;;;;9.17;62.08;96537.94;6367614;22;20005;-60
2022/03/25 07:34:56;;;;;;;22.52;11.70;;;;;;;9.81;60.46;96535.88;6368480;22;20409;-60
2022/03/25 07:37:21;;;;;;;20.10;10.13;;;;;;;10.43;58.37;96539.09;6367653;22;20006;-60
2022/03/25 07:39:47;;;;;;;20.98;10.95;;;;;;;10.78;53.91;96533.75;6368551;22;20367;-60
2022/03/25 07:42:13;;;;;;;16.25;8.15;;;;;;;11.09;55.13;96540.03;6364727;22;20011;-60
2022/03/25 07:44:39;;;;;;;12.68;9.27;;;;;;;11.31;53.52;96525.09;6363734;22;20012;-61
2022/03/25 07:47:06;;;;;;;20.25;9.13;;;;;;;11.61;52.12;96531.47;6366679;22;20006;-60
2022/03/25 07:49:34;;;;;;;12.25;7.80;;;;;;;11.46;51.36;96529.13;6367312;22;20349;-60
2022/03/25 07:52:00;;;;;;;9.65;8.05;;;;;;;11.35;51.54;96523.06;6367484;22;20005;-60
2022/03/25 07:54:25;;;;;;;6.80;5.55;;;;;;;11.48;51.18;96521.06;6366448;22;20006;-60
2022/03/25 07:56:50;;;;;;;8.15;5.63;;;;;;;11.75;50.41;96530.31;6367629;22;20466;-60
2022/03/25 07:59:16;;;;;;;12.48;5.50;;;;;;;11.84;49.72;96521.59;6367831;22;19998;-60
2022/03/25 08:01:41;;;;;;;8.00;5.30;;;;;;;11.68;49.03;96527.34;6366989;22;20011;-60
2022/03/25 08:04:07;;;;;;;5.10;4.60;;;;;;;11.67;48.43;96530.09;6367378;22;20002;-60
2022/03/25 08:06:32;;;;;;;5.20;4.53;;;;;;;12.14;48.44;96522.63;6367405;22;20002;-60
2022/03/25 08:08:59;;;;;;;5.00;4.63;;;;;;;12.20;48.80;96526.56;6367099;22;20007;-60
2022/03/25 08:11:24;;;;;;;5.18;4.68;;;;;;;12.56;46.06;96527.00;6366928;22;20006;-60
2022/03/25 08:13:50;;;;;;;4.70;4.30;;;;;;;12.58;45.85;96527.69;6365097;22;20021;-60
2022/03/25 08:16:16;;;;;;;4.88;4.47;;;;;;;12.80;43.72;96523.16;6335371;22;20067;-60
2022/03/25 08:18:43;;;;;;;5.00;4.50;;;;;;;13.17;43.74;96522.53;6364130;22;20002;-60
2022/03/25 08:21:09;;;;;;;5.53;4.60;;;;;;;13.17;43.51;96524.31;6364215;22;20003;-61
2022/03/25 08:29:03;;;;;;;4.90;4.32;;;;;;;13.39;43.18;96523.25;6362328;22;20037;-60
2022/03/25 08:31:28;;;;;;;5.03;4.43;;;;;;;13.69;41.21;96528.53;6364550;22;20003;-60
2022/03/25 08:33:54;;;;;;;9.50;4.70;;;;;;;13.77;42.02;96530.47;6364303;22;20073;-60
2022/03/25 08:36:19;;;;;;;4.53;4.07;;;;;;;13.56;42.80;96527.03;6365586;22;20010;-59
2022/03/25 08:38:45;;;;;;;4.75;4.38;;;;;;;13.65;40.94;96520.06;6336999;22;20006;-60
2022/03/25 08:41:11;;;;;;;5.05;4.63;;;;;;;13.78;42.19;96518.91;6365495;22;20021;-60
2022/03/25 08:43:37;;;;;;;4.47;4.00;;;;;;;13.94;40.79;96521.81;6365257;22;20504;-60
2022/03/25 08:46:03;;;;;;;4.57;4.18;;;;;;;13.98;39.34;96514.44;6364873;22;20052;-60
2022/03/25 08:48:29;;;;;;;5.85;4.38;;;;;;;13.94;38.45;96515.69;6364927;22;20038;-60
2022/03/25 08:50:55;;;;;;;6.75;4.40;;;;;;;14.10;39.36;96515.91;6366241;22;20400;-60
2022/03/25 08:53:21;;;;;;;4.65;3.90;;;;;;;14.39;37.86;96516.78;6364903;22;20121;-60
2022/03/25 08:55:46;;;;;;;4.22;3.90;;;;;;;14.38;37.28;96520.44;6366058;22;20006;-59
2022/03/25 08:58:12;;;;;;;5.32;4.82;;;;;;;14.42;37.67;96522.66;6365886;22;20002;-60
2022/03/25 09:00:38;;;;;;;4.63;4.22;;;;;;;14.64;38.03;96520.59;6366333;22;20473;-60
2022/03/25 09:03:05;;;;;;;5.13;4.63;;;;;;;14.63;37.76;96526.03;6365473;22;20033;-60
2022/03/25 09:05:31;;;;;;;4.72;4.32;;;;;;;14.84;35.76;96525.84;6365425;22;20007;-60
2022/03/25 09:07:56;;;;;;;5.82;4.07;;;;;;;15.07;34.80;96520.13;6365807;22;20033;-59
2022/03/25 09:10:21;;;;;;;8.93;4.07;;;;;;;14.99;34.10;96520.84;6366052;22;19999;-60
2022/03/25 09:12:47;;;;;;;5.10;4.60;;;;;;;15.19;35.20;96518.91;6364738;22;20509;-60
2022/03/25 09:15:14;;;;;;;4.20;3.90;;;;;;;15.36;34.51;96517.22;6365934;22;20006;-60
2022/03/25 09:17:42;;;;;;;5.35;3.65;;;;;;;15.82;34.57;96511.81;6365724;22;20007;-60
2022/03/25 09:20:08;;;;;;;4.22;3.80;;;;;;;16.23;32.30;96508.59;6366197;22;20070;-60
2022/03/25 09:22:34;;;;;;;4.63;4.25;;;;;;;16.05;32.81;96511.31;6365612;22;20006;-60
2022/03/25 09:25:01;;;;;;;3.92;3.60;;;;;;;16.09;33.15;96510.03;6365787;22;20085;-61
2022/03/25 09:27:26;;;;;;;5.47;3.70;;;;;;;16.41;32.36;96505.06;6364919;22;20447;-60
2022/03/25 09:29:52;;;;;;;6.18;3.85;;;;;;;16.61;31.82;96513.63;6365586;22;19998;-60
2022/03/25 09:32:17;;;;;;;4.75;3.92;;;;;;;16.83;31.58;96493.59;6365549;22;20003;-60
2022/03/25 09:37:27;;;;;;;4.28;3.90;;;;;;;17.74;28.78;96499.03;6365496;22;20025;-60
2022/03/25 09:39:52;;;;;;;4.53;3.70;;;;;;;17.17;30.02;96498.03;6365090;22;19998;-60
2022/03/25 09:42:19;;;;;;;6.50;3.97;;;;;;;16.80;30.35;96499.22;6365095;22;20002;-60
2022/03/25 09:44:45;;;;;;;5.20;3.90;;;;;;;16.72;30.57;96486.75;6364524;22;19999;-60
2022/03/25 09:47:12;;;;;;;4.95;4.07;;;;;;;17.08;27.61;96496.34;6365478;22;20021;-60
2022/03/25 09:49:38;;;;;;;4.10;3.80;;;;;;;17.42;26.69;96482.09;6365705;22;20002;-60
2022/03/25 09:52:06;;;;;;;6.00;3.92;;;;;;;17.92;26.54;96481.25;6363961;22;19999;-60
2022/03/25 09:54:31;;;;;;;4.70;4.18;;;;;;;17.99;26.18;96480.38;6365795;22;20077;-60
2022/03/25 09:56:57;;;;;;;5.10;4.25;;;;;;;18.00;25.57;96479.38;6364935;22;20090;-60
2022/03/25 09:59:22;;;;;;;4.88;4.43;;;;;;;17.31;26.52;96475.25;6365683;22;20404;-59
2022/03/25 10:01:48;;;;;;;4.38;3.95;;;;;;;17.35;26.53;96473.09;6365349;22;20049;-60
2022/03/25 10:04:45;;;;;;;4.45;4.05;;;;;;;17.52;25.84;96467.78;6363447;22;20042;-60
2022/03/25 10:07:26;;;;;;;5.15;3.95;;;;;;;17.76;25.80;96467.75;6365384;22;20089;-59
2022/03/25 10:10:13;;;;;;;4.60;3.90;;;;;;;18.12;26.07;96463.06;6364656;22;19998;-60
2022/03/25 10:12:40;;;;;;;5.05;4.53;;;;;;;18.22;24.35;96461.03;6363483;22;20006;-61
2022/03/25 10:15:24;;;;;;;4.85;4.20;;;;;;;18.32;25.72;96467.00;6364273;22;20455;-60
2022/03/25 10:17:56;;;;;;;5.57;4.25;;;;;;;18.39;23.86;96466.31;6364751;22;20438;-60
2022/03/25 10:20:33;;;;;;;9.27;4.57;;;;;;;18.52;24.32;96460.44;6364544;22;20007;-62
2022/03/25 10:23:12;;;;;;;5.97;4.65;;;;;;;17.61;24.84;96458.81;6364835;22;20087;-62
2022/03/25 10:25:40;;;;;;;4.57;4.00;;;;;;;17.85;25.22;96457.09;6365181;22;20438;-63
2022/03/25 10:28:20;;;;;;;6.47;4.03;;;;;;;18.26;25.41;96462.38;6365415;22;20018;-62
2022/03/25 10:30:50;;;;;;;4.45;4.05;;;;;;;19.20;23.68;96452.72;6364745;22;20075;-62
2022/03/25 10:33:24;;;;;;;4.85;4.35;;;;;;;19.29;23.26;96454.34;6364318;22;20002;-63
2022/03/25 10:35:57;;;;;;;12.13;4.60;;;;;;;18.68;24.21;96454.19;6365201;22;19995;-62
2022/03/25 10:38:24;;;;;;;7.80;4.28;;;;;;;19.14;23.50;96448.97;6363899;22;20010;-62
2022/03/25 10:40:52;;;;;;;4.72;4.10;;;;;;;19.25;23.02;96449.53;6364569;22;20150;-62
2022/03/25 10:43:18;;;;;;;7.43;3.83;;;;;;;19.03;23.66;96439.53;6365076;22;20010;-62
2022/03/25 10:45:43;;;;;;;4.28;3.83;;;;;;;19.15;23.74;96449.78;6365224;22;20042;-62
2022/03/25 10:48:14;;;;;;;5.35;4.40;;;;;;;19.12;23.19;96450.97;6365368;22;20037;-62
2022/03/25 10:51:01;;;;;;;4.47;4.15;;;;;;;18.89;23.58;96435.72;6365349;22;20095;-62
2022/03/25 10:53:29;;;;;;;7.07;5.00;;;;;;;18.74;25.17;96440.16;6311720;22;20350;-62
2022/03/25 10:55:55;;;;;;;7.32;4.85;;;;;;;19.55;24.13;96438.94;6364880;22;20003;-62
2022/03/25 10:58:21;;;;;;;6.78;5.10;;;;;;;19.08;24.89;96438.97;6365393;22;20006;-62
2022/03/25 11:00:48;;;;;;;9.07;5.50;;;;;;;19.96;24.80;96441.25;6365137;22;20006;-63
2022/03/25 11:03:14;;;;;;;6.85;4.90;;;;;;;19.98;23.66;96441.91;6363395;22;20062;-62
2022/03/25 11:05:40;;;;;;;5.60;5.00;;;;;;;19.86;22.81;96436.16;6364219;22;20010;-62
2022/03/25 11:08:06;;;;;;;5.68;5.13;;;;;;;19.50;23.73;96430.66;6364609;22;20438;-63
2022/03/25 11:10:32;;;;;;;7.97;4.82;;;;;;;19.84;22.82;96432.84;6364895;22;20002;-63
2022/03/25 11:13:01;;;;;;;5.53;5.03;;;;;;;19.54;25.00;96426.59;6364398;22;20005;-63
2022/03/25 11:15:27;;;;;;;5.90;4.80;;;;;;;20.42;22.94;96423.38;6365744;22;20018;-63
2022/03/25 11:17:53;;;;;;;5.13;4.35;;;;;;;20.40;22.56;96426.25;6365583;22;20393;-63
2022/03/25 11:20:21;;;;;;;4.97;4.25;;;;;;;20.59;22.16;96414.13;6365691;22;20014;-62
2022/03/25 11:23:04;;;;;;;6.75;5.50;;;;;;;20.31;23.16;96416.66;6366010;22;20019;-63
2022/03/25 11:25:31;;;;;;;6.57;5.07;;;;;;;20.16;23.45;96416.66;6365512;22;20006;-63
2022/03/25 11:28:03;;;;;;;6.45;4.78;;;;;;;20.95;22.15;96417.03;6365705;22;20579;-63
2022/03/25 11:30:33;;;;;;;5.53;4.93;;;;;;;20.88;22.38;96406.25;6367671;22;20014;-63
2022/03/25 11:33:04;;;;;;;5.07;4.57;;;;;;;20.33;22.14;96402.09;6367878;22;20013;-63
2022/03/25 11:35:35;;;;;;;5.93;5.35;;;;;;;20.68;21.77;96395.31;6367644;22;20033;-63
2022/03/25 11:38:10;;;;;;;5.43;4.93;;;;;;;20.22;23.51;96397.22;6367793;22;20006;-63
2022/03/25 11:40:36;;;;;;;5.57;4.75;;;;;;;21.04;20.85;96383.75;6368272;22;20067;-63